Aviation Digital Data Service (ADDS)

Output produced by METARs form (0820 UTC 30 September 2016)
found at http://www.aviationweather.gov/adds/metars/
 
KEWR 300538Z 3006/0112 05015G22KT P6SM -RA OVC020 
     FM301200 04020G28KT P6SM -RA OVC015 
     FM301500 04020G29KT 3SM RA OVC010 
     FM301800 04014G21KT 2SM -RA BR OVC007 
     FM010300 03012G18KT 2SM -SHRA BR OVC007